^^
Your Local Weather - Clay, NY Station Historical Data
Daily Summary for January 10, 2018 Units:  English    Metric   Both
« Previous Day
Next Day »
Daily Weekly Monthly Yearly Custom
  High: Low: Average:
Temperature: 41.9 °F 21.2 °F 37.3 °F
Dew Point: 31.4 °F 17.7 °F 25.6 °F
Humidity: 86% 49% 63%
Wind Speed: 7.0mph 0.0mph 3.6mph
Wind Gust: 11.0mph - -
Wind- - SE
Pressure: 30.38 in 30.13 in -
Precipitation: 0.24 in    
Historical Graphs
 
 
Tabular Data for January 10, 2018
Time Temperature Dew Point Pressure Wind Wind Speed Wind Gust Humidity Rainfall Rate (Hourly) solar
00:38 28.1 °F 23.0 °F 30.36 in Calm     81% 0.00 in 0 W/m2
04:02 27.1 °F 22.0 °F 30.38 in Calm     81% 0.00 in 0 W/m2
04:45 27.1 °F 22.0 °F 30.38 in Calm     81% 0.00 in 0 W/m2
06:45 25.6 °F 21.4 °F 30.37 in Calm     84% 0.00 in 0 W/m2
07:58 21.2 °F 17.7 °F 30.35 in Calm     86% 0.00 in 16 W/m2
09:18 29.5 °F 21.3 °F 30.34 in SE 2.0 mph 5.0 mph 71% 0.00 in 246 W/m2
09:24 29.8 °F 21.2 °F 30.35 in SE 3.0 mph 3.0 mph 70% 0.00 in 241 W/m2
09:26 29.8 °F 21.2 °F 30.35 in SSE 3.0 mph 3.0 mph 70% 0.00 in 227 W/m2
09:28 29.8 °F 21.2 °F 30.34 in SSE 3.0 mph 4.0 mph 70% 0.00 in 269 W/m2
09:30 29.9 °F 21.0 °F 30.34 in ESE 4.0 mph 4.0 mph 69% 0.00 in 272 W/m2
09:34 30.2 °F 21.2 °F 30.34 in SE 3.0 mph 4.0 mph 69% 0.00 in 264 W/m2
09:38 30.4 °F 21.4 °F 30.34 in ESE 3.0 mph 4.0 mph 69% 0.00 in 290 W/m2
09:44 30.6 °F 21.3 °F 30.34 in SE 3.0 mph 4.0 mph 68% 0.00 in 302 W/m2
09:46 30.6 °F 21.3 °F 30.34 in SE 3.0 mph 4.0 mph 68% 0.00 in 309 W/m2
09:52 30.9 °F 21.6 °F 30.34 in East 3.0 mph 3.0 mph 68% 0.00 in 332 W/m2
09:58 31.0 °F 21.3 °F 30.34 in ESE 3.0 mph 7.0 mph 67% 0.00 in 330 W/m2
09:59 31.0 °F 21.3 °F 30.34 in SE 3.0 mph 3.0 mph 67% 0.00 in 325 W/m2
10:03 31.3 °F 21.6 °F 30.35 in SE 3.0 mph 4.0 mph 67% 0.00 in 334 W/m2
10:05 31.2 °F 21.2 °F 30.35 in East 3.0 mph 5.0 mph 66% 0.00 in 322 W/m2
10:09 31.4 °F 21.3 °F 30.35 in SE 3.0 mph 3.0 mph 66% 0.00 in 366 W/m2
10:12 31.3 °F 21.3 °F 30.35 in SE 3.0 mph 7.0 mph 66% 0.00 in 357 W/m2
10:16 31.2 °F 21.2 °F 30.35 in SE 4.0 mph 7.0 mph 66% 0.00 in 350 W/m2
10:22 31.6 °F 21.5 °F 30.34 in SE 3.0 mph 3.0 mph 66% 0.00 in 313 W/m2
10:23 31.9 °F 21.8 °F 30.34 in SE 3.0 mph 3.0 mph 66% 0.00 in 350 W/m2
10:32 31.8 °F 21.4 °F 30.34 in SE 2.0 mph 2.0 mph 65% 0.00 in 283 W/m2
10:38 31.8 °F 21.4 °F 30.33 in SSE 3.0 mph 3.0 mph 65% 0.00 in 308 W/m2
10:39 31.8 °F 21.0 °F 30.33 in SSE 3.0 mph 3.0 mph 64% 0.00 in 330 W/m2
10:52 32.3 °F 21.5 °F 30.32 in SSE 4.0 mph 4.0 mph 64% 0.00 in 315 W/m2
10:54 32.5 °F 21.7 °F 30.32 in ESE 4.0 mph 4.0 mph 64% 0.00 in 387 W/m2
10:59 32.7 °F 21.9 °F 30.31 in SSE 4.0 mph 7.0 mph 64% 0.00 in 366 W/m2
11:06 33.1 °F 21.9 °F 30.31 in SSE 5.0 mph 7.0 mph 63% 0.00 in 406 W/m2
11:10 33.3 °F 22.1 °F 30.31 in SE 5.0 mph 5.0 mph 63% 0.00 in 434 W/m2
11:16 33.9 °F 21.9 °F 30.29 in SE 4.0 mph 5.0 mph 61% 0.00 in 411 W/m2
11:22 34.2 °F 21.7 °F 30.29 in SE 5.0 mph 5.0 mph 60% 0.00 in 397 W/m2
11:25 34.1 °F 21.7 °F 30.29 in SSE 5.0 mph 8.0 mph 60% 0.00 in 396 W/m2
11:32 34.3 °F 21.8 °F 30.29 in ESE 4.0 mph 6.0 mph 60% 0.00 in 427 W/m2
11:38 33.8 °F 21.8 °F 30.29 in SSE 2.0 mph 6.0 mph 61% 0.00 in 439 W/m2
11:50 33.6 °F 21.6 °F 30.28 in NE 2.0 mph 2.0 mph 61% 0.00 in 399 W/m2
11:52 34.0 °F 22.0 °F 30.28 in SE 2.0 mph 2.0 mph 61% 0.00 in 443 W/m2
11:58 34.4 °F 21.9 °F 30.28 in ENE 2.0 mph 2.0 mph 60% 0.00 in 369 W/m2
12:04 35.0 °F 22.1 °F 30.27 in NE 2.0 mph 2.0 mph 59% 0.00 in 462 W/m2
12:10 34.6 °F 22.1 °F 30.27 in East 2.0 mph 3.0 mph 60% 0.00 in 452 W/m2
12:12 34.9 °F 22.4 °F 30.26 in East 2.0 mph 3.0 mph 60% 0.00 in 450 W/m2
12:24 36.6 °F 22.8 °F 30.27 in NE 1.0 mph 2.0 mph 57% 0.06 in 448 W/m2
12:30 37.3 °F 22.2 °F 30.26 in NE 1.0 mph 1.0 mph 54% 0.06 in 445 W/m2
12:35 36.5 °F 22.3 °F 30.26 in NNW 1.0 mph 3.0 mph 56% 0.04 in 443 W/m2
12:42 36.2 °F 22.8 °F 30.26 in East 1.0 mph 1.0 mph 58% 0.04 in 441 W/m2
12:48 37.2 °F 22.9 °F 30.26 in North 1.0 mph 3.0 mph 56% 0.06 in 439 W/m2
12:54 36.3 °F 22.1 °F 30.26 in ENE 2.0 mph 4.0 mph 56% 0.06 in 420 W/m2
12:59 36.2 °F 22.8 °F 30.25 in SE 2.0 mph 6.0 mph 58% 0.04 in 432 W/m2
13:05 36.5 °F 23.1 °F 30.23 in East 3.0 mph 6.0 mph 58% 0.04 in 425 W/m2
13:12 36.9 °F 23.1 °F 30.24 in ENE 2.0 mph 3.0 mph 57% 0.05 in 422 W/m2
13:18 37.6 °F 23.3 °F 30.23 in SE 2.0 mph 4.0 mph 56% 0.05 in 418 W/m2
13:30 39.7 °F 23.0 °F 30.21 in SE 5.0 mph 5.0 mph 51% 0.04 in 411 W/m2
13:34 39.5 °F 22.8 °F 30.21 in SSE 7.0 mph 7.0 mph 51% 0.07 in 418 W/m2
13:40 40.0 °F 24.2 °F 30.21 in South 6.0 mph 6.0 mph 53% 0.07 in 461 W/m2
13:46 40.1 °F 22.9 °F 30.20 in South 6.0 mph 8.0 mph 50% 0.04 in 383 W/m2
13:52 39.9 °F 23.2 °F 30.20 in SSE 7.0 mph 7.0 mph 51% 0.00 in 211 W/m2
13:58 40.0 °F 23.8 °F 30.20 in SSE 5.0 mph 8.0 mph 52% 0.00 in 239 W/m2
14:02 40.0 °F 23.3 °F 30.20 in South 5.0 mph 8.0 mph 51% 0.06 in 297 W/m2
14:08 40.3 °F 23.6 °F 30.20 in SE 6.0 mph 8.0 mph 51% 0.06 in 260 W/m2
14:16 40.4 °F 23.2 °F 30.20 in SE 5.0 mph 7.0 mph 50% 0.04 in 339 W/m2
14:22 40.6 °F 23.4 °F 30.19 in SE 5.0 mph 5.0 mph 50% 0.00 in 330 W/m2
14:28 40.9 °F 23.7 °F 30.20 in SSE 5.0 mph 6.0 mph 50% 0.00 in 406 W/m2
14:36 41.6 °F 24.3 °F 30.19 in South 4.0 mph 4.0 mph 50% 0.05 in 98 W/m2
14:42 41.0 °F 23.8 °F 30.19 in SE 4.0 mph 4.0 mph 50% 0.05 in 220 W/m2
14:49 41.6 °F 24.3 °F 30.18 in SE 3.0 mph 6.0 mph 50% 0.00 in 320 W/m2
14:56 41.7 °F 24.4 °F 30.18 in SSE 3.0 mph 6.0 mph 50% 0.00 in 301 W/m2
15:03 41.9 °F 24.1 °F 30.19 in South 4.0 mph 4.0 mph 49% 0.05 in 260 W/m2
15:10 41.7 °F 24.4 °F 30.20 in SSE 4.0 mph 4.0 mph 50% 0.05 in 234 W/m2
15:15 41.7 °F 23.9 °F 30.20 in SE 4.0 mph 4.0 mph 49% 0.04 in 190 W/m2
15:22 41.7 °F 23.9 °F 30.20 in SSE 3.0 mph 3.0 mph 49% 0.00 in 130 W/m2
15:28 41.7 °F 24.9 °F 30.20 in South 3.0 mph 4.0 mph 51% 0.00 in 163 W/m2
15:33 41.4 °F 24.6 °F 30.19 in SE 2.0 mph 3.0 mph 51% 0.00 in 153 W/m2
15:40 41.6 °F 24.8 °F 30.19 in SE 3.0 mph 3.0 mph 51% 0.00 in 135 W/m2
15:46 41.7 °F 24.4 °F 30.20 in SE 3.0 mph 3.0 mph 50% 0.00 in 105 W/m2
15:52 41.5 °F 25.2 °F 30.19 in SE 4.0 mph 6.0 mph 52% 0.00 in 151 W/m2
15:58 41.3 °F 25.4 °F 30.18 in South 5.0 mph 6.0 mph 53% 0.00 in 62 W/m2
16:04 41.2 °F 25.8 °F 30.18 in SSE 5.0 mph 5.0 mph 54% 0.00 in 56 W/m2
16:12 40.9 °F 26.4 °F 30.18 in SSE 2.0 mph 3.0 mph 56% 0.00 in 30 W/m2
16:18 40.7 °F 26.2 °F 30.18 in SSE 1.0 mph 3.0 mph 56% 0.00 in 23 W/m2
16:23 40.6 °F 26.5 °F 30.18 in SSE 2.0 mph 5.0 mph 57% 0.00 in 16 W/m2
16:30 40.6 °F 26.5 °F 30.18 in SE 3.0 mph 3.0 mph 57% 0.00 in 12 W/m2
16:35 40.6 °F 26.5 °F 30.18 in SSE 3.0 mph 4.0 mph 57% 0.00 in 7 W/m2
16:42 40.5 °F 26.4 °F 30.18 in SSE 3.0 mph 4.0 mph 57% 0.00 in 0 W/m2
16:48 40.4 °F 26.8 °F 30.18 in SSE 2.0 mph 4.0 mph 58% 0.00 in 0 W/m2
16:53 40.3 °F 26.3 °F 30.17 in SSE 3.0 mph 7.0 mph 57% 0.00 in 0 W/m2
17:00 40.3 °F 26.7 °F 30.17 in SSE 4.0 mph 4.0 mph 58% 0.00 in 0 W/m2
17:06 40.2 °F 27.0 °F 30.17 in SE 4.0 mph 5.0 mph 59% 0.00 in 0 W/m2
17:12 40.2 °F 27.0 °F 30.17 in SE 4.0 mph 5.0 mph 59% 0.00 in 0 W/m2
17:18 40.2 °F 27.4 °F 30.17 in SE 4.0 mph 5.0 mph 60% 0.00 in 0 W/m2
17:24 40.0 °F 27.2 °F 30.17 in SSE 3.0 mph 5.0 mph 60% 0.00 in 0 W/m2
17:29 40.0 °F 27.2 °F 30.17 in SSE 3.0 mph 5.0 mph 60% 0.00 in 0 W/m2
17:36 40.1 °F 27.3 °F 30.16 in SE 4.0 mph 7.0 mph 60% 0.00 in 0 W/m2
17:48 40.2 °F 27.4 °F 30.16 in SSE 4.0 mph 6.0 mph 60% 0.00 in 0 W/m2
17:53 40.2 °F 27.4 °F 30.16 in South 4.0 mph 4.0 mph 60% 0.00 in 0 W/m2
18:00 39.9 °F 27.5 °F 30.15 in SE 2.0 mph 6.0 mph 61% 0.00 in 0 W/m2
18:06 39.8 °F 27.4 °F 30.16 in South 3.0 mph 6.0 mph 61% 0.00 in 0 W/m2
18:12 40.2 °F 27.8 °F 30.16 in SE 5.0 mph 5.0 mph 61% 0.00 in 0 W/m2
18:32 40.3 °F 27.9 °F 30.15 in SSE 6.0 mph 6.0 mph 61% 0.00 in 0 W/m2
18:38 40.2 °F 27.8 °F 30.15 in SSE 6.0 mph 6.0 mph 61% 0.00 in 0 W/m2
18:44 40.4 °F 28.4 °F 30.16 in SSE 5.0 mph 6.0 mph 62% 0.00 in 0 W/m2
18:49 40.4 °F 28.4 °F 30.16 in SSE 5.0 mph 5.0 mph 62% 0.00 in 0 W/m2
18:56 40.4 °F 28.4 °F 30.16 in SSE 6.0 mph 9.0 mph 62% 0.00 in 0 W/m2
19:02 40.4 °F 28.4 °F 30.16 in SSE 6.0 mph 8.0 mph 62% 0.00 in 0 W/m2
19:08 40.2 °F 29.0 °F 30.16 in SSE 6.0 mph 8.0 mph 64% 0.00 in 0 W/m2
19:14 39.8 °F 29.7 °F 30.15 in SE 5.0 mph 6.0 mph 67% 0.00 in 0 W/m2
19:19 39.3 °F 30.3 °F 30.15 in SE 5.0 mph 11.0 mph 70% 0.00 in 0 W/m2
19:26 38.7 °F 30.8 °F 30.15 in SE 5.0 mph 11.0 mph 73% 0.00 in 0 W/m2
19:32 38.4 °F 31.2 °F 30.16 in SE 4.0 mph 4.0 mph 75% 0.00 in 0 W/m2
19:50 38.4 °F 31.2 °F 30.15 in SSE 3.0 mph 4.0 mph 75% 0.00 in 0 W/m2
19:56 38.5 °F 30.9 °F 30.15 in SE 4.0 mph 6.0 mph 74% 0.00 in 0 W/m2
20:04 38.8 °F 31.2 °F 30.15 in SSE 5.0 mph 6.0 mph 74% 0.00 in 0 W/m2
20:08 38.9 °F 31.0 °F 30.16 in ESE 6.0 mph 6.0 mph 73% 0.00 in 0 W/m2
20:09 38.9 °F 31.0 °F 30.16 in SSE 5.0 mph 5.0 mph 73% 0.00 in 0 W/m2
20:22 38.9 °F 30.6 °F 30.15 in SE 6.0 mph 7.0 mph 72% 0.00 in 0 W/m2
20:28 38.9 °F 30.6 °F 30.15 in South 5.0 mph 7.0 mph 72% 0.00 in 0 W/m2
20:34 39.0 °F 30.4 °F 30.15 in ESE 5.0 mph 8.0 mph 71% 0.00 in 0 W/m2
20:54 39.3 °F 30.0 °F 30.14 in SSE 6.0 mph 10.0 mph 69% 0.00 in 0 W/m2
21:06 39.5 °F 29.8 °F 30.15 in SSE 5.0 mph 7.0 mph 68% 0.00 in 0 W/m2
21:12 39.7 °F 30.0 °F 30.14 in SSE 5.0 mph 5.0 mph 68% 0.00 in 0 W/m2
21:18 39.4 °F 30.4 °F 30.14 in East 3.0 mph 5.0 mph 70% 0.00 in 0 W/m2
21:24 39.2 °F 30.6 °F 30.14 in SSE 2.0 mph 3.0 mph 71% 0.00 in 0 W/m2
21:30 39.3 °F 30.7 °F 30.14 in SSE 3.0 mph 3.0 mph 71% 0.00 in 0 W/m2
21:35 39.4 °F 30.4 °F 30.15 in SSE 3.0 mph 4.0 mph 70% 0.00 in 0 W/m2
21:42 39.2 °F 30.9 °F 30.15 in East 3.0 mph 3.0 mph 72% 0.00 in 0 W/m2
21:48 38.6 °F 31.4 °F 30.14 in SE 2.0 mph 3.0 mph 75% 0.00 in 0 W/m2
21:53 38.7 °F 31.1 °F 30.13 in SSE 3.0 mph 5.0 mph 74% 0.00 in 0 W/m2
21:59 39.1 °F 31.2 °F 30.14 in SE 4.0 mph 4.0 mph 73% 0.00 in 0 W/m2
22:06 39.4 °F 30.8 °F 30.15 in SE 4.0 mph 6.0 mph 71% 0.00 in 0 W/m2
22:12 40.2 °F 30.8 °F 30.15 in South 5.0 mph 5.0 mph 69% 0.00 in 0 W/m2
22:18 40.6 °F 30.5 °F 30.14 in SSE 6.0 mph 7.0 mph 67% 0.00 in 0 W/m2
22:32 40.8 °F 30.3 °F 30.14 in SSE 6.0 mph 6.0 mph 66% 0.00 in 0 W/m2
22:40 40.8 °F 30.3 °F 30.14 in SE 6.0 mph 6.0 mph 66% 0.00 in 0 W/m2
22:48 40.5 °F 30.0 °F 30.14 in SE 6.0 mph 7.0 mph 66% 0.00 in 0 W/m2
22:54 40.5 °F 30.0 °F 30.14 in SSE 5.0 mph 7.0 mph 66% 0.00 in 0 W/m2
23:02 40.3 °F 29.8 °F 30.14 in SSE 4.0 mph 5.0 mph 66% 0.00 in 0 W/m2
23:08 40.2 °F 29.7 °F 30.14 in SSE 4.0 mph 6.0 mph 66% 0.00 in 0 W/m2
23:15 40.0 °F 29.6 °F 30.13 in SSE 3.0 mph 4.0 mph 66% 0.00 in 0 W/m2
23:22 40.1 °F 29.6 °F 30.14 in SSE 4.0 mph 5.0 mph 66% 0.00 in 0 W/m2
23:28 40.2 °F 29.7 °F 30.13 in SSE 4.0 mph 7.0 mph 66% 0.00 in 0 W/m2
23:34 40.2 °F 29.7 °F 30.13 in ESE 4.0 mph 4.0 mph 66% 0.00 in 0 W/m2
23:39 40.2 °F 30.1 °F 30.14 in South 3.0 mph 3.0 mph 67% 0.00 in 0 W/m2
23:46 40.2 °F 30.1 °F 30.14 in SSW 3.0 mph 3.0 mph 67% 0.00 in 0 W/m2
23:52 40.4 °F 30.3 °F 30.14 in SSE 3.0 mph 4.0 mph 67% 0.00 in 0 W/m2
23:58 40.4 °F 30.3 °F 30.14 in South 3.0 mph 4.0 mph 67% 0.00 in 0 W/m2
Country Meadow, Clay, NY, USA
Compliments of Weather Underground - 2 mb